Time;durP1;ratioP1;P1;durP2;ratioP2;P2;SDS_P1;SDS_P2;PMS_P1;PMS_P2;Temp;Humidity;BMP_temperature;BMP_pressure;BME280_temperature;BME280_humidity;BME280_pressure;Samples;Min_cycle;Max_cycle;Signal;HPM_P1;HPM_P2
2023/03/16 00:00:41;;;;;;;6.57;3.10;;;-0.60;99.90;;;;;;5026097;28;20203;-79
2023/03/16 00:03:08;;;;;;;8.70;3.33;;;-0.50;99.90;;;;;;5038462;28;20261;-80
2023/03/16 00:05:35;;;;;;;6.73;2.80;;;-0.40;99.90;;;;;;5021309;28;20227;-80
2023/03/16 00:08:04;;;;;;;6.33;2.80;;;-0.60;99.90;;;;;;5005701;28;20211;-79
2023/03/16 00:10:30;;;;;;;6.73;2.73;;;-0.60;99.90;;;;;;5017618;28;20209;-79
2023/03/16 00:12:57;;;;;;;6.73;3.20;;;-0.90;99.90;;;;;;5016761;28;20204;-80
2023/03/16 00:15:24;;;;;;;8.27;3.10;;;-1.00;99.90;;;;;;4997928;28;20658;-79
2023/03/16 00:17:51;;;;;;;5.23;2.80;;;-1.20;99.90;;;;;;5005277;28;20204;-79
2023/03/16 00:20:19;;;;;;;7.20;3.23;;;-1.30;99.90;;;;;;4997908;28;20583;-79
2023/03/16 00:22:45;;;;;;;6.03;3.40;;;-1.30;99.90;;;;;;4996336;28;20229;-79
2023/03/16 00:25:14;;;;;;;8.80;3.63;;;-1.20;99.90;;;;;;5002494;28;20225;-79
2023/03/16 00:27:41;;;;;;;8.57;3.37;;;-1.20;99.90;;;;;;5013432;28;20576;-79
2023/03/16 00:30:10;;;;;;;8.57;2.90;;;-1.20;99.90;;;;;;5016875;28;20201;-79
2023/03/16 00:32:38;;;;;;;7.70;3.50;;;-1.30;99.90;;;;;;5021055;28;20279;-79
2023/03/16 00:35:06;;;;;;;7.00;3.30;;;-1.30;99.90;;;;;;5008637;28;20201;-79
2023/03/16 00:37:33;;;;;;;6.83;3.00;;;-1.30;99.90;;;;;;5002029;28;20213;-79
2023/03/16 00:40:00;;;;;;;7.30;3.67;;;-1.40;99.90;;;;;;5006711;28;20207;-80
2023/03/16 00:42:30;;;;;;;6.07;3.33;;;-1.50;99.90;;;;;;5007264;28;20228;-80
2023/03/16 00:44:58;;;;;;;7.70;3.63;;;-1.30;99.90;;;;;;5012449;28;20260;-80
2023/03/16 00:47:27;;;;;;;6.63;3.23;;;-1.20;99.90;;;;;;4998429;28;20197;-80
2023/03/16 00:49:54;;;;;;;6.23;3.13;;;-1.30;99.90;;;;;;5013152;28;20653;-79
2023/03/16 00:52:22;;;;;;;6.73;3.10;;;-1.30;99.90;;;;;;4996407;28;20225;-80
2023/03/16 00:54:51;;;;;;;7.90;3.20;;;-1.20;99.90;;;;;;5024209;28;20212;-79
2023/03/16 00:57:18;;;;;;;6.50;2.73;;;-1.10;99.90;;;;;;5031056;28;20657;-79
2023/03/16 00:59:47;;;;;;;6.40;2.53;;;-0.80;99.90;;;;;;5016033;28;20575;-79
2023/03/16 01:02:16;;;;;;;7.07;2.77;;;-0.30;99.90;;;;;;5015399;28;20701;-80
2023/03/16 01:04:43;;;;;;;5.53;2.70;;;-0.40;99.90;;;;;;5008443;28;20256;-79
2023/03/16 01:07:12;;;;;;;4.63;2.30;;;-0.40;99.90;;;;;;5000769;28;20208;-79
2023/03/16 01:09:40;;;;;;;5.23;3.13;;;-0.50;99.90;;;;;;5015787;28;20212;-79
2023/03/16 01:12:10;;;;;;;5.37;2.50;;;-0.50;99.90;;;;;;5017718;28;20224;-80
2023/03/16 01:14:37;;;;;;;10.03;2.43;;;-0.60;99.90;;;;;;5015913;28;20196;-79
2023/03/16 01:17:07;;;;;;;7.27;2.77;;;-0.80;99.90;;;;;;5000471;28;20208;-80
2023/03/16 01:19:34;;;;;;;4.83;2.30;;;-0.80;99.90;;;;;;5008419;28;20205;-79
2023/03/16 01:22:02;;;;;;;5.40;2.10;;;-0.80;99.90;;;;;;5006431;28;20843;-79
2023/03/16 01:24:29;;;;;;;6.60;2.67;;;-0.80;99.90;;;;;;5006822;28;20225;-79
2023/03/16 01:26:56;;;;;;;3.77;2.27;;;-0.80;99.90;;;;;;5010508;28;20200;-79
2023/03/16 01:29:24;;;;;;;6.83;2.27;;;-0.70;99.90;;;;;;5022663;28;20571;-79
2023/03/16 01:31:50;;;;;;;5.03;2.40;;;-0.70;99.90;;;;;;5029848;28;20601;-79
2023/03/16 01:34:19;;;;;;;5.97;2.67;;;-0.80;99.90;;;;;;5020782;28;20210;-80
2023/03/16 01:36:48;;;;;;;4.73;2.30;;;-0.80;99.90;;;;;;5006707;28;20206;-80
2023/03/16 01:39:16;;;;;;;5.20;2.33;;;-0.80;99.90;;;;;;5017597;28;20201;-79
2023/03/16 01:41:44;;;;;;;5.40;2.30;;;-1.00;99.90;;;;;;5002138;28;20230;-79
2023/03/16 01:44:13;;;;;;;3.10;2.27;;;-1.00;99.90;;;;;;5022336;28;20983;-79
2023/03/16 01:46:40;;;;;;;7.03;2.73;;;-1.00;99.90;;;;;;5035353;28;20208;-79
2023/03/16 01:49:12;;;;;;;8.27;2.40;;;-0.90;99.90;;;;;;5036136;28;20207;-79
2023/03/16 01:51:43;;;;;;;6.07;2.33;;;-1.10;99.90;;;;;;5036012;28;20573;-79
2023/03/16 01:54:19;;;;;;;5.50;2.53;;;-1.30;99.90;;;;;;5036142;28;20200;-80
2023/03/16 01:56:50;;;;;;;5.13;2.60;;;-1.20;99.90;;;;;;5021647;28;20625;-79
2023/03/16 01:59:21;;;;;;;4.80;2.37;;;-1.20;99.90;;;;;;5016215;28;20288;-79
2023/03/16 02:01:50;;;;;;;3.43;2.40;;;-1.00;99.90;;;;;;5023969;28;20274;-79
2023/03/16 02:04:29;;;;;;;6.47;2.70;;;-0.90;99.90;;;;;;5028974;28;20230;-79
2023/03/16 02:06:57;;;;;;;6.30;3.03;;;-0.80;99.90;;;;;;5020293;28;20196;-79
2023/03/16 02:09:25;;;;;;;9.23;3.13;;;-0.80;99.90;;;;;;5030914;28;20207;-79
2023/03/16 02:11:54;;;;;;;5.37;2.83;;;-0.80;99.90;;;;;;5022539;28;20224;-80
2023/03/16 02:14:23;;;;;;;5.27;2.37;;;-0.80;99.90;;;;;;5034695;28;20869;-79
2023/03/16 02:16:51;;;;;;;3.73;2.30;;;-0.90;99.90;;;;;;5022178;28;20216;-79
2023/03/16 02:19:25;;;;;;;6.23;3.07;;;-1.00;99.90;;;;;;5015825;28;20212;-79
2023/03/16 02:22:01;;;;;;;5.00;2.40;;;-0.90;99.90;;;;;;5014652;28;20224;-79
2023/03/16 02:24:28;;;;;;;3.47;2.63;;;-1.00;99.90;;;;;;5009310;28;20224;-80
2023/03/16 02:26:57;;;;;;;5.60;3.17;;;-0.90;99.90;;;;;;5000939;28;20201;-79
2023/03/16 02:29:40;;;;;;;5.63;2.33;;;-1.00;99.90;;;;;;5002048;28;20194;-80
2023/03/16 02:32:08;;;;;;;4.83;2.20;;;-1.10;99.90;;;;;;5019559;28;20216;-79
2023/03/16 02:34:35;;;;;;;5.53;2.70;;;-1.10;99.90;;;;;;5009596;28;20197;-80
2023/03/16 02:37:04;;;;;;;6.60;2.40;;;-1.00;99.90;;;;;;5000901;28;20601;-80
2023/03/16 02:39:30;;;;;;;7.37;2.87;;;-1.00;99.90;;;;;;4999834;28;20589;-80
2023/03/16 02:41:57;;;;;;;6.07;2.20;;;-1.20;99.90;;;;;;5000187;28;20246;-79
2023/03/16 02:44:27;;;;;;;5.23;2.10;;;-1.30;99.90;;;;;;5006929;28;20201;-79
2023/03/16 02:47:00;;;;;;;6.73;2.07;;;-1.20;99.90;;;;;;5019435;28;20209;-80
2023/03/16 02:49:34;;;;;;;5.43;2.27;;;-1.10;99.90;;;;;;5018582;28;20228;-80
2023/03/16 02:52:00;;;;;;;4.43;2.20;;;-0.50;99.90;;;;;;5017053;28;20235;-80
2023/03/16 02:54:27;;;;;;;5.90;2.33;;;-0.70;99.90;;;;;;5005073;28;20193;-79
2023/03/16 02:56:54;;;;;;;5.27;2.03;;;-0.90;99.90;;;;;;5011771;28;20673;-79
2023/03/16 02:59:21;;;;;;;8.13;2.37;;;-1.10;99.90;;;;;;5017634;28;20885;-80
2023/03/16 03:01:48;;;;;;;5.27;2.30;;;-1.00;99.90;;;;;;5004116;28;20604;-79
2023/03/16 03:04:16;;;;;;;4.63;2.50;;;-0.90;99.90;;;;;;5028581;28;20199;-80
2023/03/16 03:06:43;;;;;;;4.23;2.20;;;-1.00;99.90;;;;;;5037375;28;20207;-80
2023/03/16 03:09:11;;;;;;;4.87;2.17;;;-1.00;99.90;;;;;;5038062;28;20203;-79
2023/03/16 03:11:38;;;;;;;4.97;2.33;;;-1.00;99.90;;;;;;5024152;28;20224;-79
2023/03/16 03:14:05;;;;;;;5.80;2.50;;;-1.00;99.90;;;;;;5003661;28;20209;-80
2023/03/16 03:16:31;;;;;;;8.00;2.40;;;-1.10;99.90;;;;;;5019284;28;20201;-79
2023/03/16 03:18:59;;;;;;;9.50;2.83;;;-1.20;99.90;;;;;;5011412;28;20212;-79
2023/03/16 03:21:27;;;;;;;7.30;2.73;;;-1.30;99.90;;;;;;5019064;28;20224;-79
2023/03/16 03:23:54;;;;;;;6.87;2.77;;;-1.10;99.90;;;;;;5004703;28;20201;-79
2023/03/16 03:26:21;;;;;;;4.53;2.40;;;-1.10;99.90;;;;;;5015492;28;20714;-79
2023/03/16 03:28:48;;;;;;;6.77;2.27;;;-1.00;99.90;;;;;;5017849;28;20672;-80
2023/03/16 03:31:16;;;;;;;6.03;2.50;;;-1.10;99.90;;;;;;5017925;28;20254;-79
2023/03/16 03:33:43;;;;;;;3.03;2.40;;;-1.10;99.90;;;;;;5018993;28;20192;-80
2023/03/16 03:36:11;;;;;;;5.30;2.63;;;-1.20;99.90;;;;;;5018813;28;20197;-80
2023/03/16 03:38:39;;;;;;;7.37;2.70;;;-1.10;99.90;;;;;;5019005;28;20216;-80
2023/03/16 03:41:07;;;;;;;6.80;2.50;;;-1.20;99.90;;;;;;5021934;28;20219;-80
2023/03/16 03:43:34;;;;;;;4.47;2.50;;;-1.20;99.90;;;;;;5031228;28;20714;-79
2023/03/16 03:46:02;;;;;;;7.07;2.33;;;-1.10;99.90;;;;;;5003970;28;20228;-79
2023/03/16 03:48:29;;;;;;;5.53;2.43;;;-1.10;99.90;;;;;;5014993;28;20200;-79
2023/03/16 03:50:56;;;;;;;6.73;2.47;;;-1.00;99.90;;;;;;5017373;28;20224;-80
2023/03/16 03:53:22;;;;;;;3.70;2.20;;;-0.90;99.90;;;;;;5016123;28;20200;-79
2023/03/16 03:55:51;;;;;;;5.97;2.27;;;-0.80;99.90;;;;;;5015491;28;20575;-83
2023/03/16 03:58:17;;;;;;;6.03;4.00;;;-0.60;99.90;;;;;;5009280;28;20687;-79
2023/03/16 04:00:44;;;;;;;9.20;3.53;;;-0.40;99.90;;;;;;4996800;28;20201;-79
2023/03/16 04:03:11;;;;;;;6.00;3.30;;;-0.40;99.90;;;;;;5009998;28;20208;-79
2023/03/16 04:05:38;;;;;;;6.90;3.60;;;-0.40;99.90;;;;;;5015681;28;20224;-79
2023/03/16 04:08:05;;;;;;;8.17;2.57;;;-0.60;99.90;;;;;;5015541;28;20227;-79
2023/03/16 04:10:32;;;;;;;4.53;2.13;;;-0.60;99.90;;;;;;5003378;28;20211;-79
2023/03/16 04:13:00;;;;;;;4.27;2.33;;;-0.60;99.90;;;;;;5025546;28;20197;-80
2023/03/16 04:15:27;;;;;;;5.73;2.77;;;-0.40;99.90;;;;;;5001879;28;20201;-78
2023/03/16 04:17:54;;;;;;;5.63;2.20;;;-0.80;99.90;;;;;;5029097;28;20223;-79
2023/03/16 04:20:22;;;;;;;6.40;3.60;;;-0.80;99.90;;;;;;5033325;28;20199;-79
2023/03/16 04:22:57;;;;;;;18.93;9.23;;;-0.50;99.90;;;;;;5031880;28;20250;-79
2023/03/16 04:25:26;;;;;;;7.40;2.80;;;-0.40;99.90;;;;;;5022471;28;20245;-79
2023/03/16 04:27:53;;;;;;;6.47;2.50;;;-0.40;99.90;;;;;;5032870;28;20215;-78
2023/03/16 04:30:22;;;;;;;6.03;2.60;;;-0.30;99.90;;;;;;5014778;28;20660;-79
2023/03/16 04:32:49;;;;;;;7.17;2.30;;;-0.10;99.90;;;;;;5023280;28;20273;-80
2023/03/16 04:35:16;;;;;;;4.17;2.00;;;-0.40;99.90;;;;;;5035318;28;20192;-80
2023/03/16 04:37:43;;;;;;;3.73;2.03;;;-0.50;99.90;;;;;;5035080;28;20204;-81
2023/03/16 04:40:15;;;;;;;6.50;2.03;;;-0.50;99.90;;;;;;5034036;28;20656;-80
2023/03/16 04:42:42;;;;;;;5.43;2.40;;;-0.50;99.90;;;;;;5015074;28;20235;-80
2023/03/16 04:45:10;;;;;;;6.00;2.63;;;-0.50;99.90;;;;;;5013791;28;20221;-80
2023/03/16 04:47:38;;;;;;;5.60;2.50;;;-0.40;99.90;;;;;;5015830;28;20214;-79
2023/03/16 04:50:06;;;;;;;4.00;2.40;;;-0.50;99.90;;;;;;5014422;28;20665;-80
2023/03/16 04:52:33;;;;;;;5.20;2.17;;;-0.30;99.90;;;;;;5014569;28;20227;-80
2023/03/16 04:54:59;;;;;;;4.20;2.20;;;0.00;99.90;;;;;;5015290;28;20204;-80
2023/03/16 04:57:26;;;;;;;5.13;2.13;;;0.20;99.90;;;;;;5013728;28;20311;-80
2023/03/16 04:59:53;;;;;;;11.50;2.60;;;0.30;99.90;;;;;;5014818;28;20204;-80
2023/03/16 05:02:20;;;;;;;3.23;2.10;;;0.20;99.90;;;;;;5012913;28;20272;-80
2023/03/16 05:04:48;;;;;;;4.07;1.57;;;0.10;99.90;;;;;;4995708;28;20205;-80
2023/03/16 05:07:15;;;;;;;5.17;2.40;;;0.10;99.90;;;;;;4993408;28;20232;-80
2023/03/16 05:09:42;;;;;;;3.70;2.20;;;0.20;99.90;;;;;;5009226;28;20204;-80
2023/03/16 05:12:10;;;;;;;11.37;2.40;;;0.00;99.90;;;;;;5033963;28;20223;-80
2023/03/16 05:14:37;;;;;;;5.63;2.40;;;-0.10;99.90;;;;;;5034341;28;20231;-80
2023/03/16 05:17:03;;;;;;;2.50;1.90;;;0.00;99.90;;;;;;5033727;28;20204;-80
2023/03/16 05:19:30;;;;;;;5.47;2.40;;;0.20;99.90;;;;;;5033803;28;20688;-80
2023/03/16 05:21:59;;;;;;;4.60;2.03;;;0.10;99.90;;;;;;5031714;28;20219;-80
2023/03/16 05:24:25;;;;;;;5.37;2.40;;;0.20;99.90;;;;;;5018280;28;20557;-79
2023/03/16 05:26:52;;;;;;;3.70;1.93;;;0.10;99.90;;;;;;5013959;28;20238;-80
2023/03/16 05:29:19;;;;;;;5.00;1.97;;;0.20;99.90;;;;;;5012936;28;20218;-79
2023/03/16 05:31:47;;;;;;;6.80;2.47;;;0.20;99.90;;;;;;5012430;28;20243;-80
2023/03/16 05:34:14;;;;;;;5.87;2.13;;;0.10;99.90;;;;;;5009605;28;20615;-80
2023/03/16 05:36:41;;;;;;;5.80;2.17;;;0.40;99.90;;;;;;5009727;28;20201;-80
2023/03/16 05:39:09;;;;;;;5.90;2.10;;;0.30;99.90;;;;;;5017614;28;20203;-80
2023/03/16 05:41:35;;;;;;;6.00;2.70;;;0.30;99.90;;;;;;5022784;28;20219;-80
2023/03/16 05:44:03;;;;;;;6.27;2.30;;;0.50;99.90;;;;;;5012786;28;20219;-80
2023/03/16 05:46:30;;;;;;;4.83;2.67;;;0.60;99.90;;;;;;5011419;28;20224;-79
2023/03/16 05:48:57;;;;;;;6.17;2.33;;;0.60;99.90;;;;;;5012918;28;20204;-80
2023/03/16 05:51:25;;;;;;;5.93;2.20;;;0.80;99.90;;;;;;5012214;28;20277;-80
2023/03/16 05:53:55;;;;;;;5.40;2.30;;;0.80;99.90;;;;;;5012601;28;20672;-80
2023/03/16 05:56:24;;;;;;;5.50;2.07;;;0.80;99.90;;;;;;5015052;28;20258;-80
2023/03/16 05:58:51;;;;;;;9.33;2.70;;;0.90;99.90;;;;;;5016594;28;20231;-80
2023/03/16 06:01:19;;;;;;;6.43;2.70;;;1.00;99.90;;;;;;5017030;28;20219;-80
2023/03/16 06:03:46;;;;;;;7.87;2.70;;;1.10;99.90;;;;;;5016977;28;20211;-81
2023/03/16 06:06:13;;;;;;;5.63;2.23;;;1.30;99.90;;;;;;5017527;28;20224;-80
2023/03/16 06:08:39;;;;;;;5.47;3.67;;;1.40;99.90;;;;;;5016248;28;20212;-81
2023/03/16 06:11:06;;;;;;;4.97;2.33;;;1.70;99.90;;;;;;5017657;28;20234;-80
2023/03/16 06:13:34;;;;;;;8.07;1.90;;;2.20;99.90;;;;;;5015958;28;20210;-80
2023/03/16 06:16:01;;;;;;;4.80;2.00;;;2.50;99.90;;;;;;5017507;28;20204;-79
2023/03/16 06:18:28;;;;;;;5.30;1.67;;;2.20;99.90;;;;;;5016139;28;20205;-81
2023/03/16 06:20:56;;;;;;;5.90;2.00;;;2.10;99.90;;;;;;5016927;28;20247;-80
2023/03/16 06:23:23;;;;;;;5.70;1.87;;;2.00;99.90;;;;;;5017677;28;20577;-80
2023/03/16 06:25:53;;;;;;;5.57;2.10;;;1.90;99.90;;;;;;5017101;28;20584;-81
2023/03/16 06:28:20;;;;;;;3.83;1.97;;;2.00;99.90;;;;;;5015046;28;20242;-80
2023/03/16 06:30:49;;;;;;;6.30;2.27;;;2.10;99.90;;;;;;5016276;28;20200;-80
2023/03/16 06:33:15;;;;;;;7.87;3.17;;;2.20;99.90;;;;;;4997847;28;20653;-80
2023/03/16 06:35:42;;;;;;;4.50;2.93;;;2.30;99.90;;;;;;4996112;28;20208;-79
2023/03/16 06:38:09;;;;;;;3.60;1.93;;;2.50;99.90;;;;;;4996467;28;20204;-80
2023/03/16 06:40:36;;;;;;;4.63;2.00;;;2.70;99.90;;;;;;4995529;28;20223;-81
2023/03/16 06:43:02;;;;;;;4.97;2.17;;;2.80;99.90;;;;;;5004122;28;20196;-80
2023/03/16 06:45:30;;;;;;;3.43;1.97;;;2.90;99.90;;;;;;5022449;28;20205;-81
2023/03/16 06:47:58;;;;;;;4.70;2.07;;;2.90;99.90;;;;;;5018732;28;20208;-80
2023/03/16 06:50:25;;;;;;;7.10;2.20;;;3.10;99.90;;;;;;5029242;28;20200;-80
2023/03/16 06:52:52;;;;;;;3.50;1.73;;;3.30;99.90;;;;;;5033613;28;20223;-81
2023/03/16 06:55:18;;;;;;;4.33;2.00;;;3.40;99.90;;;;;;5033452;28;20214;-81
2023/03/16 06:57:45;;;;;;;5.60;2.30;;;3.40;99.90;;;;;;5032206;28;20203;-80
2023/03/16 07:00:14;;;;;;;4.23;1.47;;;3.40;99.90;;;;;;5015834;28;20208;-82
2023/03/16 07:02:42;;;;;;;2.70;1.60;;;3.40;99.90;;;;;;5032314;28;20224;-80
2023/03/16 07:05:12;;;;;;;5.67;1.73;;;3.40;99.90;;;;;;5026813;28;20212;-81
2023/03/16 07:07:39;;;;;;;5.70;1.80;;;3.50;99.90;;;;;;5034092;28;20646;-80
2023/03/16 07:10:06;;;;;;;4.80;1.83;;;3.70;99.90;;;;;;5031466;28;20204;-80
2023/03/16 07:12:33;;;;;;;3.07;1.67;;;3.80;99.90;;;;;;5015846;28;20220;-81
2023/03/16 07:15:00;;;;;;;6.13;2.13;;;3.90;99.90;;;;;;5014576;28;20247;-80
2023/03/16 07:17:27;;;;;;;3.97;1.90;;;4.10;99.90;;;;;;4995901;28;20209;-81
2023/03/16 07:19:54;;;;;;;5.13;2.20;;;4.20;99.90;;;;;;4995281;28;20204;-81
2023/03/16 07:22:22;;;;;;;5.10;2.07;;;4.40;99.90;;;;;;4995326;28;20224;-80
2023/03/16 07:24:54;;;;;;;5.57;1.93;;;4.30;99.90;;;;;;4995765;28;20201;-81
2023/03/16 07:27:22;;;;;;;3.40;2.00;;;4.40;99.90;;;;;;4994932;28;20208;-80
2023/03/16 07:29:49;;;;;;;2.13;1.70;;;4.60;99.90;;;;;;4995560;28;20208;-81
2023/03/16 07:32:16;;;;;;;4.93;2.13;;;4.70;99.90;;;;;;4995237;28;20240;-80
2023/03/16 07:34:43;;;;;;;6.03;1.90;;;4.70;99.90;;;;;;4994793;28;20211;-81
2023/03/16 07:37:10;;;;;;;2.07;1.50;;;4.80;99.90;;;;;;4993319;28;20213;-82
2023/03/16 07:39:38;;;;;;;2.10;1.40;;;4.80;99.90;;;;;;5013054;28;20200;-82
2023/03/16 07:42:05;;;;;;;6.03;1.80;;;4.70;99.90;;;;;;5018738;28;20238;-81
2023/03/16 07:44:32;;;;;;;3.67;1.87;;;4.70;99.90;;;;;;5034903;28;20196;-81
2023/03/16 07:46:59;;;;;;;5.70;1.83;;;4.70;99.90;;;;;;5032623;28;20215;-81
2023/03/16 07:49:26;;;;;;;4.63;1.80;;;4.80;99.90;;;;;;5034170;28;20211;-81
2023/03/16 07:51:53;;;;;;;5.30;1.70;;;4.80;99.90;;;;;;5032598;28;20319;-82
2023/03/16 07:54:20;;;;;;;4.63;1.60;;;5.10;99.90;;;;;;5034352;28;20196;-80
2023/03/16 07:56:48;;;;;;;4.37;1.70;;;5.10;99.90;;;;;;5034507;28;20258;-80
2023/03/16 07:59:15;;;;;;;2.57;1.60;;;5.10;99.90;;;;;;5033175;28;20295;-80
2023/03/16 08:01:42;;;;;;;3.77;1.40;;;5.50;99.90;;;;;;5034433;28;20238;-81
2023/03/16 08:04:11;;;;;;;4.03;1.70;;;5.60;99.90;;;;;;5034288;28;20211;-80
2023/03/16 08:06:37;;;;;;;4.33;1.40;;;5.60;99.90;;;;;;5034730;28;20307;-81
2023/03/16 08:09:04;;;;;;;4.67;1.43;;;6.10;99.90;;;;;;5033398;28;20578;-80
2023/03/16 08:11:31;;;;;;;5.07;1.70;;;6.10;99.90;;;;;;5033652;28;20596;-80
2023/03/16 08:13:59;;;;;;;6.87;1.60;;;5.90;99.90;;;;;;5033479;28;20215;-81
2023/03/16 08:16:27;;;;;;;3.33;1.77;;;5.60;99.90;;;;;;5022145;28;20200;-81
2023/03/16 08:18:56;;;;;;;4.27;1.70;;;5.50;99.90;;;;;;5025174;28;20580;-81
2023/03/16 08:21:23;;;;;;;2.20;1.33;;;5.50;99.90;;;;;;5033355;28;20232;-81
2023/03/16 08:23:50;;;;;;;2.03;1.70;;;5.70;99.90;;;;;;5033129;28;20199;-80
2023/03/16 08:26:19;;;;;;;4.70;1.83;;;6.00;99.90;;;;;;5033710;28;20250;-80
2023/03/16 08:28:46;;;;;;;5.47;1.57;;;6.40;1.00;;;;;;5032638;28;20278;-82
2023/03/16 08:31:15;;;;;;;5.13;1.30;;;6.80;1.00;;;;;;5033661;28;20226;-82
2023/03/16 08:33:42;;;;;;;6.97;2.20;;;6.90;1.00;;;;;;5033873;28;20580;-82
2023/03/16 08:36:12;;;;;;;6.93;1.83;;;7.10;99.90;;;;;;5029807;28;20705;-82
2023/03/16 08:38:39;;;;;;;3.30;1.73;;;7.30;99.90;;;;;;5011674;28;20211;-82
2023/03/16 08:41:07;;;;;;;3.33;1.27;;;7.30;99.90;;;;;;5011901;28;20315;-81
2023/03/16 08:43:34;;;;;;;4.87;1.50;;;7.30;99.90;;;;;;5014070;28;20291;-80
2023/03/16 08:46:02;;;;;;;3.07;1.40;;;6.70;1.00;;;;;;5012175;28;20726;-81
2023/03/16 08:48:32;;;;;;;3.63;1.40;;;6.90;1.00;;;;;;5028709;28;20200;-81
2023/03/16 08:51:01;;;;;;;4.70;1.50;;;7.30;1.00;;;;;;5022941;28;20228;-82
2023/03/16 08:53:29;;;;;;;3.00;1.37;;;7.10;1.00;;;;;;5032213;28;20199;-81
2023/03/16 08:56:03;;;;;;;2.53;1.40;;;7.00;1.00;;;;;;5011736;28;20293;-81
2023/03/16 08:58:31;;;;;;;3.83;1.30;;;7.10;1.00;;;;;;5000161;28;20218;-80
2023/03/16 09:00:58;;;;;;;5.00;1.87;;;7.00;1.00;;;;;;5021171;28;20270;-81
2023/03/16 09:03:26;;;;;;;5.50;1.90;;;7.30;1.00;;;;;;5018732;28;20213;-83
2023/03/16 09:05:56;;;;;;;5.43;1.70;;;7.20;99.90;;;;;;5033106;28;20210;-81
2023/03/16 09:08:23;;;;;;;3.47;1.70;;;7.40;99.90;;;;;;5018243;28;20232;-80
2023/03/16 09:10:50;;;;;;;3.80;1.83;;;7.90;1.00;;;;;;5013256;28;20661;-80
2023/03/16 09:13:18;;;;;;;5.50;1.60;;;7.80;99.90;;;;;;5025538;28;20623;-81
2023/03/16 09:15:45;;;;;;;3.73;1.50;;;8.40;1.00;;;;;;5032226;28;20199;-81
2023/03/16 09:18:12;;;;;;;7.00;2.20;;;8.30;99.90;;;;;;5031997;28;20215;-82
2023/03/16 09:20:39;;;;;;;5.40;1.60;;;8.30;99.90;;;;;;5030695;28;20204;-81
2023/03/16 09:23:07;;;;;;;4.40;1.50;;;9.00;99.90;;;;;;5032575;28;20214;-81
2023/03/16 09:25:34;;;;;;;3.40;1.70;;;8.70;99.90;;;;;;5032954;28;20204;-81
2023/03/16 09:28:00;;;;;;;3.97;1.50;;;9.30;99.90;;;;;;5032797;28;20568;-81
2023/03/16 09:30:28;;;;;;;3.50;1.70;;;8.40;1.00;;;;;;5025526;28;20228;-82
2023/03/16 09:32:55;;;;;;;5.60;1.83;;;8.10;1.00;;;;;;5010241;28;20224;-82
2023/03/16 09:35:22;;;;;;;2.80;1.70;;;8.60;1.00;;;;;;4996536;28;20692;-81
2023/03/16 09:37:51;;;;;;;3.13;1.80;;;8.90;1.00;;;;;;5004819;28;20360;-81
2023/03/16 09:40:25;;;;;;;3.97;1.50;;;9.00;1.00;;;;;;5016020;28;20208;-81
2023/03/16 09:43:10;;;;;;;3.80;1.50;;;9.50;1.00;;;;;;5009376;28;20601;-81
2023/03/16 09:45:47;;;;;;;3.53;1.50;;;8.70;1.00;;;;;;4997138;28;20212;-81
2023/03/16 09:48:17;;;;;;;6.03;1.77;;;8.30;1.00;;;;;;5019376;28;20214;-82
2023/03/16 09:50:45;;;;;;;5.50;1.43;;;8.90;1.00;;;;;;4995975;28;20680;-82
2023/03/16 09:53:19;;;;;;;4.80;1.73;;;8.50;1.00;;;;;;5005748;28;20232;-81
2023/03/16 09:55:50;;;;;;;4.30;1.73;;;8.80;1.00;;;;;;5011136;28;20204;-82
2023/03/16 09:58:20;;;;;;;3.13;1.40;;;8.60;1.00;;;;;;5017083;28;20299;-81
2023/03/16 10:00:54;;;;;;;4.77;1.70;;;8.10;99.90;;;;;;5014438;28;20200;-81
2023/03/16 10:03:37;;;;;;;3.10;1.40;;;8.50;99.90;;;;;;5011331;28;20204;-81
2023/03/16 10:06:09;;;;;;;5.07;1.57;;;8.20;99.90;;;;;;5012695;28;20219;-81
2023/03/16 10:08:40;;;;;;;4.07;1.57;;;9.30;99.90;;;;;;5011226;28;20223;-82
2023/03/16 10:11:22;;;;;;;2.77;1.70;;;9.40;99.90;;;;;;5005390;28;20684;-82
2023/03/16 10:13:53;;;;;;;2.37;1.30;;;9.10;99.90;;;;;;5013304;28;20201;-82
2023/03/16 10:16:24;;;;;;;4.33;1.77;;;9.90;99.90;;;;;;5020729;28;20685;-81
2023/03/16 10:18:56;;;;;;;4.17;1.57;;;9.70;99.90;;;;;;4992835;28;20215;-81
2023/03/16 10:21:24;;;;;;;4.63;1.63;;;10.10;99.90;;;;;;4992920;28;20251;-81
2023/03/16 10:23:54;;;;;;;3.83;1.47;;;10.20;99.90;;;;;;4991736;28;20201;-82
2023/03/16 10:26:28;;;;;;;3.83;1.53;;;10.50;99.90;;;;;;4992849;28;20212;-81
2023/03/16 10:28:55;;;;;;;3.23;1.67;;;9.90;99.90;;;;;;4999573;28;20319;-81
2023/03/16 10:31:23;;;;;;;5.10;1.70;;;10.10;99.90;;;;;;5012949;28;20708;-83
2023/03/16 10:33:55;;;;;;;3.20;1.57;;;10.30;99.90;;;;;;5011026;28;20626;-83
2023/03/16 10:36:27;;;;;;;4.20;1.40;;;10.40;99.90;;;;;;5012559;28;20189;-82
2023/03/16 10:38:58;;;;;;;6.60;1.70;;;10.70;92.30;;;;;;5012649;28;20208;-81
2023/03/16 10:41:29;;;;;;;2.13;1.50;;;10.80;68.40;;;;;;5012538;28;20625;-81
2023/03/16 10:43:58;;;;;;;1.93;1.50;;;10.20;1.00;;;;;;5014155;28;20656;-80
2023/03/16 10:46:27;;;;;;;5.07;1.80;;;11.10;57.60;;;;;;5015794;28;20280;-82
2023/03/16 10:48:59;;;;;;;5.27;1.80;;;11.00;1.00;;;;;;5018803;28;20277;-81
2023/03/16 10:51:29;;;;;;;2.63;1.50;;;10.10;1.00;;;;;;5019993;28;20216;-82
2023/03/16 10:54:03;;;;;;;1.63;1.30;;;10.10;1.00;;;;;;5015821;28;20572;-81
2023/03/16 10:56:35;;;;;;;2.13;1.30;;;10.30;1.00;;;;;;5005558;28;20209;-82
2023/03/16 10:59:14;;;;;;;4.40;1.60;;;10.60;1.00;;;;;;5009207;28;20252;-82
2023/03/16 11:01:45;;;;;;;3.10;1.30;;;10.00;1.00;;;;;;4994947;28;20221;-81
2023/03/16 11:04:15;;;;;;;2.13;1.30;;;10.60;1.00;;;;;;4999578;28;20541;-82
2023/03/16 11:06:49;;;;;;;4.73;1.50;;;11.00;1.00;;;;;;5024521;28;20660;-82
2023/03/16 11:09:20;;;;;;;2.00;1.20;;;11.30;1.00;;;;;;5034544;28;20203;-82
2023/03/16 11:11:50;;;;;;;2.60;1.40;;;10.70;1.00;;;;;;5035719;28;20318;-83
2023/03/16 11:14:21;;;;;;;2.80;1.40;;;10.20;1.00;;;;;;5034804;28;20203;-82
2023/03/16 11:16:52;;;;;;;5.37;1.87;;;10.40;1.00;;;;;;5033558;28;20210;-82
2023/03/16 11:19:24;;;;;;;5.53;1.70;;;10.70;1.00;;;;;;5033508;28;20215;-82
2023/03/16 11:21:56;;;;;;;2.63;1.60;;;10.80;1.00;;;;;;5013625;28;20683;-81
2023/03/16 11:24:29;;;;;;;3.17;1.90;;;11.30;1.00;;;;;;5014818;28;20200;-81
2023/03/16 11:27:01;;;;;;;3.43;2.00;;;10.20;1.00;;;;;;5015604;28;20576;-82
2023/03/16 11:29:39;;;;;;;4.07;2.00;;;10.80;1.00;;;;;;5012803;28;20642;-81
2023/03/16 11:32:13;;;;;;;3.87;1.80;;;10.70;1.00;;;;;;5014021;28;20231;-82
2023/03/16 11:34:42;;;;;;;3.03;1.70;;;11.10;1.00;;;;;;5026113;28;20204;-81
2023/03/16 11:37:20;;;;;;;4.30;2.03;;;10.90;1.00;;;;;;5013787;28;20626;-81
2023/03/16 11:39:56;;;;;;;5.53;2.03;;;10.60;1.00;;;;;;5015188;28;20204;-81
2023/03/16 11:42:37;;;;;;;7.67;2.00;;;10.40;1.00;;;;;;5014290;28;20228;-81
2023/03/16 11:45:18;;;;;;;3.23;1.57;;;10.70;1.00;;;;;;5007926;28;20220;-83
2023/03/16 11:48:06;;;;;;;3.20;1.80;;;10.50;99.90;;;;;;5010419;28;20231;-80
2023/03/16 11:50:43;;;;;;;2.17;1.53;;;10.60;99.90;;;;;;5032051;28;20660;-81
2023/03/16 11:53:19;;;;;;;2.70;1.73;;;10.20;99.90;;;;;;5035338;28;20213;-81
2023/03/16 11:55:57;;;;;;;5.60;2.30;;;10.40;99.90;;;;;;5026776;28;20308;-82
2023/03/16 11:58:41;;;;;;;2.30;1.50;;;11.80;1.00;;;;;;5004188;28;20193;-81
2023/03/16 12:01:17;;;;;;;4.03;2.00;;;11.90;1.00;;;;;;5013681;28;20228;-81
2023/03/16 12:04:26;;;;;;;3.43;2.17;;;11.00;99.90;;;;;;5006284;28;20200;-81
2023/03/16 12:07:05;;;;;;;3.97;1.60;;;10.60;99.90;;;;;;4993149;28;20232;-80
2023/03/16 12:09:59;;;;;;;2.67;1.97;;;10.50;99.90;;;;;;4995800;28;20677;-80
2023/03/16 12:12:36;;;;;;;3.33;1.50;;;11.20;99.90;;;;;;5015488;28;20232;-81
2023/03/16 12:15:29;;;;;;;3.13;1.77;;;11.80;99.90;;;;;;5017885;28;20211;-81
2023/03/16 12:18:00;;;;;;;1.80;1.50;;;11.50;99.90;;;;;;5013350;28;20590;-82
2023/03/16 12:20:30;;;;;;;2.90;1.83;;;12.30;99.90;;;;;;5017197;28;20258;-81
2023/03/16 12:23:02;;;;;;;3.20;1.90;;;12.30;99.90;;;;;;5013650;28;20260;-80
2023/03/16 12:25:32;;;;;;;2.40;1.67;;;12.00;99.90;;;;;;4998646;28;20228;-81
2023/03/16 12:28:03;;;;;;;3.43;1.70;;;11.60;99.90;;;;;;4997904;28;20312;-81
2023/03/16 12:30:44;;;;;;;2.20;1.60;;;11.00;82.80;;;;;;4996989;28;20320;-80
2023/03/16 12:33:22;;;;;;;3.63;1.67;;;11.30;99.90;;;;;;4999464;28;20288;-82
2023/03/16 12:35:55;;;;;;;1.57;1.47;;;11.40;87.40;;;;;;4999172;28;20623;-81
2023/03/16 12:38:32;;;;;;;3.87;1.90;;;12.30;99.90;;;;;;4999477;28;20228;-82
2023/03/16 12:41:11;;;;;;;3.67;1.53;;;12.50;99.90;;;;;;4998546;28;20227;-82
2023/03/16 12:44:03;;;;;;;2.70;1.43;;;11.50;1.00;;;;;;4999113;28;20205;-81
2023/03/16 12:46:42;;;;;;;1.77;1.33;;;10.90;1.00;;;;;;5001333;28;20228;-81
2023/03/16 12:49:09;;;;;;;2.27;1.70;;;11.10;1.00;;;;;;4999664;28;20677;-81
2023/03/16 12:51:38;;;;;;;2.43;1.67;;;11.50;1.00;;;;;;5000783;28;20221;-81
2023/03/16 12:54:07;;;;;;;2.90;1.40;;;11.60;1.00;;;;;;5000760;28;20240;-81
2023/03/16 12:56:36;;;;;;;2.00;1.10;;;12.30;1.00;;;;;;4999822;28;20205;-80
2023/03/16 12:59:06;;;;;;;2.57;1.37;;;11.80;1.00;;;;;;5000434;28;20242;-81
2023/03/16 13:01:42;;;;;;;1.00;0.97;;;12.50;1.00;;;;;;5001827;28;20228;-81
2023/03/16 13:04:13;;;;;;;2.03;1.23;;;11.00;1.00;;;;;;5002507;28;20584;-81